Ferrisburgh, Vermont
Current Conditions -  °F | °C
As of 2:15 PM on Friday 28 Nov 2014 (Local Time) from K6B0 Reporting Station
Light Snow Light Snow  
Wind Chill: 26°   Ceiling: 2700
Heat Index: 26°   Visibility: 3mi
Dew Point: 22°   Wind: 0mph
Humidity: 87%   Direction: NA
Pressure: 30.09"   Gusts: NA
Location:  44.2091°N, 73.2784°W
Report Text: K6B0 281915Z AUTO 00000KT 3SM -SN BKN027 OVC032 M03/M05 A3009 RMK AO2 T10351054
Loading
Personal Weather Stations






























Interactive Weather Map New forecast layout! Learn more

10-Day Weather Forecast

Advertisements
Track Severe Weather on mobile